• Join FlightAware (Why Join?)
  • Login
  • US Flag 
03:18PM EDT


 

Airport Tracker/Info


-or-


 

Live Flight TrackerFlight Track Log ✈ DAL863 ✈ 01-May-2013 ✈ KJFK - KLAX

Flight Track Log - Related Links

Times and Time Zones

All times are in EDT time to prevent confusion due to time zone crossing. See the DAL863 flight status page for this flight to view local times or setup timezone preferences in your user account.

Time Position Orientation Groundspeed Altitude Reporting Facility
EDT Latitude Longitude Course Direction KTS MPH feet Rate Location/Type
12:10PM 40.6340 -73.7840 121° Southeast 164 189 100  Level FlightAware
12:11PM 40.6250 -73.7750 143° Southeast 168 193 800 2,400 Climbing FlightAware
12:11PM 40.6120 -73.7730 173° South 185 213 1,300 1,560 Climbing FlightAware
12:11PM 40.5840 -73.7700 175° South 228 262 2,000 1,800 Climbing FlightAware
12:12PM 40.5540 -73.7660 174° South 255 293 3,000 2,520 Climbing FlightAware
12:12PM 40.5310 -73.7630 174° South 264 304 3,900 3,000 Climbing FlightAware
12:12PM 40.5080 -73.7730 198° South 275 316 5,000 3,000 Climbing FlightAware
12:13PM 40.4910 -73.8010 231° Southwest 286 329 5,900 2,880 Climbing FlightAware
12:13PM 40.4760 -73.8370 241° Southwest 287 330 7,200 3,180 Climbing FlightAware
12:13PM 40.4702 -73.8516 242° Southwest 290 334 7,600 3,060 Climbing FlightAware ADS-B
12:14PM 40.4556 -73.8863 241° Southwest 294 338 8,700 3,000 Climbing FlightAware ADS-B
12:14PM 40.4454 -73.9111 242° Southwest 295 339 9,500 2,160 Climbing FlightAware ADS-B
12:15PM 40.4228 -73.9658 242° Southwest 324 373 10,500 1,500 Climbing FlightAware ADS-B
12:15PM 40.4003 -74.0208 242° Southwest 357 411 11,100 1,380 Climbing FlightAware ADS-B
12:16PM 40.3757 -74.0801 241° Southwest 379 436 11,900 1,320 Climbing FlightAware ADS-B
12:16PM 40.3489 -74.1447 241° Southwest 388 447 12,500 540 Climbing FlightAware ADS-B
12:17PM 40.3232 -74.2068 242° Southwest 384 442 12,500  Level FlightAware ADS-B
12:17PM 40.2966 -74.2706 241° Southwest 383 441 12,500 420 Level FlightAware ADS-B
12:18PM 40.2683 -74.3384 241° Southwest 388 447 13,000 1,560 Climbing FlightAware ADS-B
12:18PM 40.2422 -74.4005 241° Southwest 393 452 14,200 2,400 Climbing FlightAware ADS-B
12:19PM 40.2155 -74.4650 242° Southwest 401 461 15,400 2,220 Climbing FlightAware ADS-B
12:19PM 40.2073 -74.4924 249° West 404 465 15,800 1,800 Climbing FlightAware ADS-B
12:19PM 40.2021 -74.5168 254° West 406 467 16,100 1,980 Climbing FlightAware ADS-B
12:19PM 40.1994 -74.5359 260° West 407 468 16,400 2,160 Climbing FlightAware ADS-B
12:20PM 40.1932 -74.6104 264° West 411 473 17,500 2,100 Climbing FlightAware ADS-B
12:20PM 40.1870 -74.6895 264° West 419 482 18,600 1,920 Climbing FlightAware ADS-B
12:21PM 40.1810 -74.7662 264° West 425 489 19,500 1,860 Climbing FlightAware ADS-B
12:21PM 40.1748 -74.8457 264° West 431 496 20,500 1,680 Climbing FlightAware ADS-B
12:22PM 40.1681 -74.9282 264° West 440 506 21,300 1,500 Climbing FlightAware ADS-B
12:22PM 40.1615 -75.0102 264° West 449 517 22,100 1,560 Climbing FlightAware ADS-B
12:23PM 40.1546 -75.0925 264° West 454 522 22,900 1,620 Climbing FlightAware ADS-B
12:23PM 40.1477 -75.1752 264° West 459 528 23,800 1,560 Climbing FlightAware ADS-B
12:24PM 40.1402 -75.2654 264° West 462 532 24,600 1,560 Climbing FlightAware ADS-B
12:24PM 40.1330 -75.3503 264° West 464 534 25,500 1,620 Climbing FlightAware ADS-B
12:25PM 40.1255 -75.4380 264° West 466 536 26,300 1,380 Climbing FlightAware ADS-B
12:25PM 40.1180 -75.5250 264° West 472 543 27,000 1,260 Climbing FlightAware ADS-B
12:26PM 40.1105 -75.6110 264° West 475 547 27,600 1,200 Climbing FlightAware ADS-B
12:26PM 40.1026 -75.7020 264° West 479 551 28,300 1,500 Climbing FlightAware ADS-B
12:27PM 40.0946 -75.7922 263° West 476 548 29,200 1,680 Climbing FlightAware ADS-B
12:27PM 40.0864 -75.8836 263° West 472 543 30,100 1,380 Climbing FlightAware ADS-B
12:28PM 40.0784 -75.9728 263° West 474 545 30,700 1,200 Climbing FlightAware ADS-B
12:28PM 40.0703 -76.0626 263° West 474 545 31,400 1,320 Climbing FlightAware ADS-B
12:29PM 40.0622 -76.1501 263° West 473 544 32,100 1,200 Climbing FlightAware ADS-B
12:30PM 40.0542 -76.2373 263° West 472 543 32,700 1,320 Climbing FlightAware ADS-B
12:30PM 40.0461 -76.3240 263° West 470 541 33,500 1,260 Climbing FlightAware ADS-B
12:31PM 40.0380 -76.4105 263° West 467 537 34,000 420 Climbing FlightAware ADS-B
12:31PM 40.0294 -76.4998 263° West 467 537 34,000 540 Level FlightAware ADS-B
12:32PM 40.0211 -76.5857 263° West 465 535 34,600 960 Climbing FlightAware ADS-B
12:32PM 40.0168 -76.6653 266° West 460 529 35,000 780 Climbing FlightAware ADS-B
12:33PM 40.0195 -76.7505 272° West 461 531 35,400 840 Climbing FlightAware ADS-B
12:33PM 40.0217 -76.8347 272° West 462 532 35,900 540 Climbing FlightAware ADS-B
12:34PM 40.0228 -76.9357 271° West 459 528 36,000 60 Climbing FlightAware ADS-B
12:34PM 40.0230 -77.0355 270° West 455 524 36,000  Level FlightAware ADS-B
12:35PM 40.0229 -77.1214 270° West 457 526 36,000  Level FlightAware ADS-B
12:35PM 40.0228 -77.2070 270° West 460 529 36,000  Level FlightAware ADS-B
12:36PM 40.0228 -77.3203 270° West 463 533 36,000  Level FlightAware ADS-B
12:37PM 40.0246 -77.4600 271° West 463 533 36,000  Level FlightAware ADS-B
12:38PM 40.0260 -77.6000 271° West 463 533 36,000  Level FlightAware
12:39PM 40.0270 -77.7260 271° West 463 533 36,000  Level FlightAware
12:40PM 40.0290 -77.9050 271° West 461 531 36,000  Level FlightAware
12:40PM 40.0290 -77.9840 270° West 461 531 36,000  Level FlightAware
12:41PM 40.0310 -78.1380 271° West 459 528 36,000  Level FlightAware
12:42PM 40.0320 -78.2480 271° West 457 526 36,000  Level FlightAware
12:42PM 40.0320 -78.3560 270° West 457 526 36,000  Level FlightAware
12:43PM 40.0330 -78.4830 271° West 456 525 36,000  Level FlightAware
12:44PM 40.0330 -78.5880 270° West 456 525 36,000  Level FlightAware
12:44PM 40.0330 -78.7170 270° West 457 526 36,000  Level FlightAware
12:46PM 40.0330 -78.8960 270° West 457 526 36,000  Level FlightAware
12:46PM 40.0330 -78.9600 270° West 456 525 36,000  Level FlightAware
12:47PM 40.0330 -79.0870 270° West 456 525 36,000  Level FlightAware
12:47PM 40.0330 -79.2090 270° West 456 525 36,000  Level FlightAware
12:48PM 40.0320 -79.3270 269° West 457 526 36,000  Level FlightAware
12:49PM 40.0320 -79.4810 270° West 457 526 36,000  Level FlightAware
12:50PM 40.0310 -79.5950 269° West 457 526 36,000  Level FlightAware
12:51PM 40.0300 -79.7190 269° West 457 526 36,000  Level FlightAware
12:51PM 40.0300 -79.8170 270° West 456 525 36,000  Level FlightAware
12:52PM 40.0290 -79.9310 269° West 456 525 36,000  Level FlightAware
12:53PM 40.0270 -80.0630 269° West 455 524 36,000  Level FlightAware
12:53PM 40.0260 -80.1670 269° West 454 522 36,000  Level FlightAware
12:54PM 40.0250 -80.2770 269° West 453 521 36,000  Level FlightAware
12:55PM 40.0230 -80.4010 269° West 452 520 36,000  Level FlightAware
12:55PM 40.0220 -80.5100 269° West 453 521 36,000  Level FlightAware
12:56PM 40.0200 -80.6300 269° West 453 521 36,000  Level FlightAware
12:57PM 40.0180 -80.7400 269° West 455 524 36,000  Level FlightAware
12:58PM 40.0160 -80.8680 269° West 456 525 36,000  Level FlightAware
12:58PM 40.0150 -80.9750 269° West 457 526 36,000  Level FlightAware
12:59PM 40.0130 -81.0850 269° West 458 527 36,000  Level FlightAware
01:00PM 40.0120 -81.2070 269° West 459 528 36,000  Level FlightAware
01:00PM 40.0090 -81.3330 268° West 459 528 36,000  Level FlightAware
01:01PM 40.0070 -81.4450 269° West 460 529 36,000  Level FlightAware
01:02PM 40.0050 -81.5540 269° West 461 531 36,000  Level FlightAware
01:02PM 40.0020 -81.6790 268° West 462 532 36,000  Level FlightAware
01:03PM 40.0000 -81.7890 269° West 462 532 36,000  Level FlightAware
01:04PM 39.9970 -81.9160 268° West 461 531 36,000  Level FlightAware
01:05PM 39.9940 -82.0280 268° West 460 529 36,000  Level FlightAware
01:05PM 39.9910 -82.1530 268° West 460 529 36,000  Level FlightAware
01:06PM 39.9890 -82.2570 269° West 461 531 36,000  Level FlightAware
01:07PM 39.9860 -82.3700 268° West 461 531 36,000  Level FlightAware
01:07PM 39.9820 -82.4970 268° West 462 532 36,000  Level FlightAware
01:08PM 39.9790 -82.6090 268° West 463 533 36,000  Level FlightAware
01:09PM 39.9760 -82.7320 268° West 464 534 36,000  Level FlightAware
01:09PM 39.9720 -82.8430 267° West 465 535 36,000  Level FlightAware
01:10PM 39.9690 -82.9540 268° West 465 535 36,000  Level FlightAware
01:11PM 39.9650 -83.0700 267° West 465 535 36,000  Level FlightAware
01:11PM 39.9630 -83.1710 269° West 465 535 36,000  Level FlightAware
01:12PM 39.9600 -83.2660 268° West 465 535 36,000  Level FlightAware
01:13PM 39.9260 -83.4170 254° West 461 531 36,000  Level FlightAware
01:14PM 39.9070 -83.5320 258° West 457 526 36,000  Level FlightAware
01:14PM 39.8870 -83.6510 258° West 452 520 36,000  Level FlightAware
01:15PM 39.8690 -83.7580 258° West 448 516 36,000  Level FlightAware
01:16PM 39.8490 -83.8790 258° West 444 511 36,000  Level FlightAware
01:16PM 39.8320 -83.9810 258° West 442 509 36,000  Level FlightAware
01:17PM 39.8160 -84.0870 259° West 440 506 36,000  Level FlightAware
01:18PM 39.8040 -84.2020 262° West 441 507 36,000  Level FlightAware
01:19PM 39.7950 -84.3030 263° West 442 509 36,000  Level FlightAware
01:19PM 39.7830 -84.4130 262° West 442 509 36,000  Level FlightAware
01:20PM 39.7730 -84.5100 262° West 446 513 36,000  Level FlightAware
01:21PM 39.7600 -84.6430 263° West 453 521 36,000  Level FlightAware
01:21PM 39.7510 -84.7340 263° West 456 525 36,000  Level FlightAware
01:22PM 39.7390 -84.8430 262° West 456 525 36,000  Level FlightAware
01:23PM 39.7220 -85.0070 262° West 456 525 36,000  Level FlightAware
01:24PM 39.7090 -85.1330 262° West 455 524 36,000  Level FlightAware
01:24PM 39.6970 -85.2410 262° West 453 521 36,000  Level FlightAware
01:25PM 39.6800 -85.3980 262° West 450 518 36,000  Level FlightAware
01:26PM 39.6670 -85.5180 262° West 447 514 36,000  Level FlightAware
01:27PM 39.6550 -85.6150 261° West 446 513 36,000  Level FlightAware
01:27PM 39.6440 -85.7240 263° West 442 509 36,000  Level FlightAware
01:28PM 39.6330 -85.8240 262° West 439 505 36,000  Level FlightAware
01:29PM 39.6220 -85.9310 262° West 437 503 36,000  Level FlightAware
01:30PM 39.6100 -86.0640 263° West 437 503 36,000  Level FlightAware
01:30PM 39.6000 -86.1690 263° West 436 502 36,000  Level FlightAware
01:31PM 39.5890 -86.2810 263° West 436 502 36,000  Level FlightAware
01:32PM 39.5780 -86.3840 262° West 437 503 36,000  Level FlightAware
01:32PM 39.5670 -86.4960 263° West 436 502 36,000  Level FlightAware
01:33PM 39.5550 -86.6120 262° West 437 503 36,000  Level FlightAware
01:34PM 39.5450 -86.7150 263° West 438 504 36,000  Level FlightAware
01:34PM 39.5330 -86.8290 262° West 439 505 36,000  Level FlightAware
01:35PM 39.5250 -86.9070 262° West 440 506 36,000  Level FlightAware
01:36PM 39.5140 -87.0120 262° West 442 509 36,000  Level FlightAware
01:36PM 39.5030 -87.1210 263° West 444 511 36,000  Level FlightAware
01:37PM 39.4910 -87.2220 261° West 446 513 36,000  Level FlightAware
01:38PM 39.4750 -87.3290 259° West 446 513 36,000  Level FlightAware
01:38PM 39.4580 -87.4220 257° West 448 516 36,000  Level FlightAware
01:39PM 39.4360 -87.5440 257° West 449 517 36,000  Level FlightAware
01:40PM 39.4140 -87.6640 257° West 451 519 36,000  Level FlightAware
01:40PM 39.3960 -87.7600 256° West 451 519 36,000  Level FlightAware
01:41PM 39.3690 -87.9070 257° West 452 520 36,000  Level FlightAware
01:42PM 39.3460 -88.0330 257° West 452 520 36,000  Level FlightAware
01:43PM 39.3260 -88.1370 256° West 452 520 36,000  Level FlightAware
01:44PM 39.3040 -88.2560 257° West 451 519 36,000  Level FlightAware
01:44PM 39.2840 -88.3600 256° West 451 519 36,000  Level FlightAware
01:45PM 39.2620 -88.4780 256° West 452 520 36,000  Level FlightAware
01:46PM 39.2420 -88.5830 256° West 451 519 36,000  Level FlightAware
01:46PM 39.2220 -88.6880 256° West 450 518 36,000  Level FlightAware
01:47PM 39.1990 -88.8040 256° West 449 517 36,000  Level FlightAware
01:48PM 39.1800 -88.9060 257° West 447 514 36,000  Level FlightAware
01:48PM 39.1570 -89.0240 256° West 445 512 36,000  Level FlightAware
01:49PM 39.1370 -89.1260 256° West 444 511 36,000  Level FlightAware
01:50PM 39.1160 -89.2290 255° West 444 511 36,000  Level FlightAware
01:51PM 39.0940 -89.3420 256° West 444 511 36,000  Level FlightAware
01:51PM 39.0730 -89.4440 255° West 444 511 36,000  Level FlightAware
01:52PM 39.0570 -89.5280 256° West 445 512 36,000  Level FlightAware
01:53PM 39.0290 -89.6630 255° West 444 511 36,000  Level FlightAware
01:53PM 39.0150 -89.7680 260° West 445 512 36,000  Level FlightAware
01:54PM 39.0010 -89.8810 261° West 445 512 36,000  Level FlightAware
01:55PM 38.9810 -90.0120 259° West 445 512 36,000  Level FlightAware
01:56PM 38.9680 -90.1000 259° West 445 512 36,000  Level FlightAware
01:56PM 38.9520 -90.2150 260° West 446 513 36,000  Level FlightAware
01:57PM 38.9360 -90.3240 259° West 446 513 36,000  Level FlightAware
01:58PM 38.9160 -90.4630 260° West 447 514 36,000  Level FlightAware
01:59PM 38.8940 -90.6140 259° West 449 517 36,000  Level FlightAware
01:59PM 38.8770 -90.7330 260° West 450 518 36,000  Level FlightAware
02:00PM 38.8650 -90.8220 260° West 450 518 36,000  Level FlightAware
02:01PM 38.8490 -90.9270 259° West 450 518 36,000  Level FlightAware
02:02PM 38.8320 -91.0390 259° West 450 518 36,000  Level FlightAware
02:02PM 38.8180 -91.1280 259° West 450 518 36,000  Level FlightAware
02:03PM 38.7990 -91.2660 260° West 450 518 36,000  Level FlightAware
02:04PM 38.7830 -91.3730 259° West 452 520 36,000  Level FlightAware
02:04PM 38.7700 -91.4620 259° West 452 520 36,000  Level FlightAware
02:05PM 38.7530 -91.5740 259° West 452 520 36,000  Level FlightAware
02:06PM 38.7390 -91.6640 259° West 452 520 36,000  Level FlightAware
02:06PM 38.7260 -91.7530 259° West 452 520 36,000  Level FlightAware
02:07PM 38.7120 -91.8420 259° West 452 520 36,000  Level FlightAware
02:08PM 38.6980 -91.9320 259° West 452 520 36,000  Level FlightAware
02:08PM 38.6850 -92.0210 259° West 452 520 36,000  Level FlightAware
02:09PM 38.6480 -92.2570 259° West 451 519 36,000  Level FlightAware
02:10PM 38.6290 -92.3660 257° West 451 519 36,000  Level FlightAware
02:11PM 38.6150 -92.4550 259° West 451 519 36,000  Level FlightAware
02:11PM 38.6000 -92.5430 258° West 451 519 36,000  Level FlightAware
02:12PM 38.5810 -92.6540 258° West 451 519 36,000  Level FlightAware
02:13PM 38.5670 -92.7430 259° West 451 519 36,000  Level FlightAware
02:13PM 38.5520 -92.8320 258° West 451 519 36,000  Level FlightAware
02:14PM 38.5240 -93.0230 259° West 456 525 36,000  Level FlightAware
02:15PM 38.5020 -93.1540 258° West 458 527 36,000  Level FlightAware
02:16PM 38.4820 -93.2760 258° West 461 531 36,000  Level FlightAware
02:16PM 38.4640 -93.3820 258° West 463 533 36,000  Level FlightAware
02:17PM 38.4460 -93.4890 258° West 465 535 36,000  Level FlightAware
02:18PM 38.4260 -93.6080 258° West 466 536 36,000  Level FlightAware
02:18PM 38.4080 -93.7140 258° West 467 537 36,000  Level FlightAware
02:19PM 38.3860 -93.8380 257° West 467 537 36,000  Level FlightAware
02:20PM 38.3690 -93.9350 257° West 468 539 36,000  Level FlightAware
02:20PM 38.3490 -94.0510 258° West 467 537 36,000  Level FlightAware
02:21PM 38.3280 -94.1740 258° West 465 535 36,000  Level FlightAware
02:22PM 38.3090 -94.2800 257° West 464 534 36,000  Level FlightAware
02:23PM 38.2890 -94.3950 258° West 462 532 36,000  Level FlightAware
02:23PM 38.2700 -94.5020 257° West 460 529 36,000  Level FlightAware
02:24PM 38.2530 -94.6090 259° West 458 527 36,000  Level FlightAware
02:25PM 38.2350 -94.7290 259° West 456 525 36,000  Level FlightAware
02:25PM 38.2180 -94.8320 258° West 454 522 36,000  Level FlightAware
02:26PM 38.1990 -94.9530 259° West 454 522 36,000  Level FlightAware
02:27PM 38.1800 -95.0640 258° West 454 522 36,000  Level FlightAware
02:28PM 38.1650 -95.1530 258° West 454 522 36,000  Level FlightAware
02:28PM 38.1500 -95.2420 258° West 454 522 36,000  Level FlightAware
02:29PM 38.1350 -95.3310 258° West 454 522 36,000  Level FlightAware
02:30PM 38.1200 -95.4190 258° West 454 522 36,000  Level FlightAware
02:31PM 38.1020 -95.5300 258° West 454 522 36,000  Level FlightAware
02:31PM 38.0870 -95.6190 258° West 454 522 36,000  Level FlightAware
02:32PM 38.0720 -95.7080 258° West 454 522 36,000  Level FlightAware
02:33PM 38.0570 -95.7970 258° West 454 522 36,000  Level FlightAware
02:33PM 38.0420 -95.8850 258° West 454 522 36,000  Level FlightAware
02:34PM 38.0240 -95.9960 258° West 454 522 36,000  Level FlightAware
02:35PM 38.0090 -96.0850 258° West 454 522 36,000  Level FlightAware
02:35PM 37.9580 -96.3800 258° West 451 519 36,000  Level FlightAware
02:36PM 37.9690 -96.3160 78° East 448 516 36,000  Level FlightAware
02:37PM 37.9550 -96.4010 258° West 448 516 36,000  Level FlightAware
02:38PM 37.8980 -96.7380 258° West 446 513 36,000  Level FlightAware
02:38PM 37.8780 -96.8520 258° West 444 511 36,000  Level FlightAware
02:39PM 37.8610 -96.9470 257° West 443 510 36,000  Level FlightAware
02:40PM 37.8410 -97.0570 257° West 443 510 36,000  Level FlightAware
02:41PM 37.8200 -97.1730 257° West 443 510 36,000  Level FlightAware
02:41PM 37.8030 -97.2710 258° West 442 509 36,000  Level FlightAware
02:42PM 37.7820 -97.3830 257° West 441 507 36,000  Level FlightAware
02:43PM 37.7630 -97.4860 257° West 441 507 36,000  Level FlightAware
02:43PM 37.7430 -97.5980 257° West 440 506 36,000  Level FlightAware
02:44PM 37.7240 -97.6950 256° West 439 505 36,000  Level FlightAware
02:45PM 37.7050 -97.7940 256° West 438 504 36,000  Level FlightAware
02:45PM 37.6840 -97.9040 256° West 438 504 36,000  Level FlightAware
02:46PM 37.6590 -98.0310 256° West 436 502 36,000  Level FlightAware
02:47PM 37.6390 -98.1350 256° West 434 499 36,000  Level FlightAware
02:48PM 37.6220 -98.2180 256° West 433 498 36,000  Level FlightAware
02:49PM 37.6020 -98.3230 257° West 433 498 36,000  Level FlightAware
02:50PM 37.5850 -98.4060 256° West 433 498 36,000  Level FlightAware
02:50PM 37.5690 -98.4890 256° West 433 498 36,000  Level FlightAware
02:51PM 37.5520 -98.5730 256° West 433 498 36,000  Level FlightAware
02:52PM 37.5360 -98.6560 256° West 433 498 36,000  Level FlightAware
02:52PM 37.5150 -98.7600 256° West 433 498 36,000  Level FlightAware
02:53PM 37.4990 -98.8440 257° West 433 498 36,000  Level FlightAware
02:54PM 37.4820 -98.9270 256° West 433 498 36,000  Level FlightAware
02:54PM 37.4660 -99.0100 256° West 433 498 36,000  Level FlightAware
02:55PM 37.4490 -99.0930 256° West 433 498 36,000  Level FlightAware
02:56PM 37.4330 -99.1770 257° West 433 498 36,000  Level FlightAware
02:57PM 37.4120 -99.2810 256° West 433 498 36,000  Level FlightAware
02:57PM 37.3960 -99.3640 256° West 433 498 36,000  Level FlightAware
02:58PM 37.3053 -99.7697 256° West 420 483 36,000  Level Albuquerque Center
02:59PM 37.2750 -99.9064 254° West 421 484 36,000  Level Kansas City Center
03:00PM 37.2425 -100.0642 256° West 420 483 36,000  Level Kansas City Center
03:01PM 37.2136 -100.1989 255° West 418 481 36,000  Level Kansas City Center
03:03PM 37.1800 -100.3553 255° West 416 479 36,000  Level Kansas City Center
03:04PM 37.1503 -100.4892 254° West 415 478 36,000  Level Kansas City Center
03:05PM 37.1164 -100.6453 255° West 414 476 36,000  Level Kansas City Center
03:06PM 37.0864 -100.7792 254° West 415 478 36,000  Level Kansas City Center
03:07PM 37.0519 -100.9356 255° West 416 479 36,000  Level Kansas City Center
03:08PM 37.0308 -101.0703 259° West 413 475 36,000  Level Kansas City Center
03:09PM 37.0147 -101.2092 262° West 418 481 36,000  Level Kansas City Center
03:10PM 36.9942 -101.3681 261° West 416 479 36,000  Level Kansas City Center
03:11PM 36.9775 -101.5031 261° West 412 474 36,000  Level Albuquerque Center
03:12PM 36.9569 -101.6592 261° West 408 470 36,000  Level Albuquerque Center
03:13PM 36.9394 -101.7908 261° West 403 464 36,000  Level Albuquerque Center
03:14PM 36.9194 -101.9483 261° West 408 470 36,000  Level Albuquerque Center
03:15PM 36.9014 -102.0806 260° West 406 467 36,000 60 Level Albuquerque Center
03:16PM 36.8803 -102.2358 260° West 405 466 36,200 780 Climbing Albuquerque Center
03:17PM 36.8617 -102.3689 260° West 402 463 37,700 840 Climbing Albuquerque Center
03:18PM 36.8439 -102.5011 261° West 393 452 38,000 120 Climbing Albuquerque Center
03:19PM 36.8244 -102.6450 260° West 385 443 38,000  Level Albuquerque Center
03:20PM 36.8056 -102.7767 260° West 384 442 38,000  Level Albuquerque Center
03:21PM 36.7869 -102.9125 260° West 391 450 38,000  Level Albuquerque Center
03:22PM 36.7678 -103.0461 260° West 390 449 38,000  Level Albuquerque Center
03:23PM 36.7486 -103.1786 260° West 388 447 38,000  Level Albuquerque Center
03:24PM 36.7286 -103.3119 259° West 389 448 38,000  Level Albuquerque Center
03:25PM 36.7100 -103.4458 260° West 389 448 38,000  Level Albuquerque Center
03:26PM 36.6864 -103.6033 259° West 392 451 38,000  Level Albuquerque Center
03:27PM 36.6664 -103.7389 260° West 396 456 38,000  Level Albuquerque Center
03:28PM 36.6467 -103.8728 260° West 392 451 38,000  Level Albuquerque Center
03:29PM 36.6261 -104.0061 259° West 390 449 38,000  Level Albuquerque Center
03:30PM 36.6053 -104.1389 259° West 390 449 38,000  Level Albuquerque Center
03:31PM 36.5856 -104.2733 260° West 392 451 38,000  Level Albuquerque Center
03:32PM 36.5642 -104.4083 259° West 394 453 38,000  Level Albuquerque Center
03:33PM 36.5428 -104.5417 259° West 392 451 38,000 -60 Level Albuquerque Center
03:34PM 36.5114 -104.6958 256° West 392 451 37,900 -540 Descending Albuquerque Center
03:35PM 36.4861 -104.8269 257° West 389 448 36,900 -960 Descending Albuquerque Center
03:37PM 36.4597 -104.9617 256° West 394 453 36,000 -480 Descending Albuquerque Center
03:38PM 36.4317 -105.0983 256° West 403 464 36,000  Level Albuquerque Center
03:39PM 36.4044 -105.2322 256° West 400 460 36,000  Level Albuquerque Center
03:40PM 36.3789 -105.3617 256° West 388 447 36,000  Level Albuquerque Center
03:41PM 36.3533 -105.4892 256° West 381 438 36,000  Level Albuquerque Center
03:46PM 36.2100 -106.1860 256° West 387 445 36,000  Level FlightAware
03:47PM 36.1940 -106.2630 256° West 387 445 36,000  Level FlightAware
03:47PM 36.1700 -106.3790 256° West 389 448 36,000  Level FlightAware
03:48PM 36.1560 -106.4450 255° West 389 448 36,000  Level FlightAware
03:49PM 36.1350 -106.5440 255° West 396 456 36,000  Level FlightAware
03:50PM 36.1110 -106.6550 255° West 392 451 36,000  Level FlightAware
03:50PM 36.0920 -106.7430 255° West 397 457 36,000  Level FlightAware
03:51PM 36.0620 -106.8850 255° West 402 463 36,000  Level FlightAware
03:52PM 36.0420 -106.9780 255° West 398 458 36,000  Level FlightAware
03:53PM 36.0200 -107.0780 255° West 398 458 36,000  Level FlightAware
03:53PM 36.0010 -107.1670 255° West 397 457 36,000  Level FlightAware
03:54PM 35.9800 -107.2630 255° West 397 457 36,000  Level FlightAware
03:55PM 35.9610 -107.3490 255° West 399 459 36,000  Level FlightAware
03:56PM 35.9380 -107.4520 255° West 400 460 36,000  Level FlightAware
03:56PM 35.9190 -107.5390 255° West 401 461 36,000  Level FlightAware
03:57PM 35.8980 -107.6300 254° West 399 459 36,000  Level FlightAware
03:58PM 35.8770 -107.7240 255° West 398 458 36,000  Level FlightAware
03:58PM 35.8580 -107.8110 255° West 398 458 36,000  Level FlightAware
03:59PM 35.8380 -107.8980 254° West 398 458 36,000  Level FlightAware
04:00PM 35.8190 -107.9850 255° West 397 457 36,000  Level FlightAware
04:00PM 35.7980 -108.0750 254° West 397 457 36,000  Level FlightAware
04:01PM 35.7800 -108.1490 253° West 397 457 36,000  Level FlightAware
04:02PM 35.7630 -108.2230 254° West 397 457 36,000  Level FlightAware
04:03PM 35.7420 -108.3160 254° West 397 457 36,000  Level FlightAware
04:03PM 35.7250 -108.3900 254° West 397 457 36,000  Level FlightAware
04:04PM 35.7070 -108.4640 253° West 397 457 36,000  Level FlightAware
04:05PM 35.6680 -108.6410 255° West 403 464 36,000  Level FlightAware
04:05PM 35.6520 -108.7100 254° West 403 464 36,000  Level FlightAware
04:06PM 35.6300 -108.8040 254° West 403 464 36,000  Level FlightAware
04:07PM 35.6120 -108.8790 254° West 403 464 36,000  Level FlightAware
04:07PM 35.5950 -108.9540 254° West 403 464 36,000  Level FlightAware
04:08PM 35.5770 -109.0290 254° West 403 464 36,000  Level FlightAware
04:09PM 35.5600 -109.1040 254° West 403 464 36,000  Level FlightAware
04:10PM 35.5380 -109.1980 254° West 403 464 36,000  Level FlightAware
04:10PM 35.5210 -109.2720 254° West 403 464 36,000  Level FlightAware
04:11PM 35.5030 -109.3470 254° West 403 464 36,000  Level FlightAware
04:12PM 35.4860 -109.4220 254° West 403 464 36,000  Level FlightAware
04:12PM 35.4680 -109.4970 254° West 403 464 36,000  Level FlightAware
04:13PM 35.4510 -109.5720 254° West 403 464 36,000  Level FlightAware
04:14PM 35.4290 -109.6650 254° West 403 464 36,000  Level FlightAware
04:14PM 35.4110 -109.7400 254° West 403 464 36,000  Level FlightAware
04:18PM 35.2460 -110.3920 253° West 36,000  Level FlightAware
04:19PM 35.2170 -110.5050 253° West 410 472 36,000  Level FlightAware
04:20PM 35.1890 -110.6180 253° West 412 474 36,000  Level FlightAware
04:20PM 35.1670 -110.7060 253° West 412 474 36,000  Level FlightAware
04:21PM 35.1420 -110.8020 252° West 411 473 36,000  Level FlightAware
04:22PM 35.1230 -110.8800 253° West 410 472 36,000  Level FlightAware
04:23PM 35.0990 -110.9720 252° West 410 472 36,000 540 Level FlightAware
04:23PM 35.0690 -111.0910 253° West 406 467 36,900 960 Climbing FlightAware
04:24PM 35.0480 -111.1700 252° West 409 471 37,500 660 Climbing FlightAware
04:25PM 35.0240 -111.2650 253° West 420 483 37,800 360 Climbing FlightAware
04:25PM 35.0030 -111.3450 252° West 425 489 38,000 120 Climbing FlightAware
04:26PM 34.9740 -111.4570 252° West 433 498 38,000  Level FlightAware
04:27PM 34.9440 -111.5710 252° West 433 498 38,000  Level FlightAware
04:28PM 34.9200 -111.6630 252° West 431 496 38,000  Level FlightAware
04:28PM 34.8930 -111.7650 252° West 432 497 38,000  Level FlightAware
04:29PM 34.8700 -111.8540 253° West 432 497 38,000  Level FlightAware
04:30PM 34.8470 -111.9420 252° West 431 496 38,000  Level FlightAware
04:30PM 34.8190 -112.0440 252° West 432 497 38,000  Level FlightAware
04:31PM 34.7920 -112.1490 253° West 432 497 38,000  Level FlightAware
04:32PM 34.7670 -112.2410 252° West 432 497 38,000  Level FlightAware
04:32PM 34.7440 -112.3260 252° West 432 497 38,000  Level FlightAware
04:33PM 34.7190 -112.4190 252° West 432 497 38,000  Level FlightAware
04:34PM 34.6930 -112.5320 254° West 433 498 38,000  Level FlightAware
04:35PM 34.6770 -112.6290 259° West 430 495 38,000  Level FlightAware
04:35PM 34.6610 -112.7320 259° West 430 495 38,000  Level FlightAware
04:36PM 34.6460 -112.8230 259° West 430 495 38,000  Level FlightAware
04:37PM 34.6300 -112.9180 258° West 431 496 38,000  Level FlightAware
04:37PM 34.6100 -113.0310 258° West 433 498 38,000  Level FlightAware
04:38PM 34.5920 -113.1370 258° West 435 501 38,000  Level FlightAware
04:39PM 34.5750 -113.2420 259° West 436 502 38,000  Level FlightAware
04:39PM 34.5580 -113.3350 258° West 436 502 38,000  Level FlightAware
04:40PM 34.5440 -113.4180 258° West 437 503 38,000  Level FlightAware
04:41PM 34.5260 -113.5240 258° West 438 504 38,000  Level FlightAware
04:42PM 34.5030 -113.6540 258° West 437 503 38,000  Level FlightAware
04:42PM 34.4850 -113.7550 258° West 437 503 38,000  Level FlightAware
04:43PM 34.4700 -113.8400 258° West 437 503 38,000  Level FlightAware
04:44PM 34.4500 -113.9520 258° West 437 503 38,000  Level FlightAware
04:44PM 34.4310 -114.0620 258° West 438 504 38,000  Level FlightAware
04:45PM 34.4130 -114.1590 257° West 439 505 38,000  Level FlightAware
04:46PM 34.3950 -114.2640 258° West 441 507 38,000  Level FlightAware
04:46PM 34.3770 -114.3610 257° West 441 507 38,000  Level FlightAware
04:47PM 34.3560 -114.4720 257° West 441 507 38,000  Level FlightAware
04:48PM 34.3350 -114.5900 258° West 441 507 38,000  Level FlightAware
04:49PM 34.3170 -114.6890 258° West 441 507 38,000  Level FlightAware
04:49PM 34.3010 -114.7700 257° West 441 507 38,000 -240 Level FlightAware
04:50PM 34.2790 -114.8940 258° West 441 507 37,700 -240 Descending FlightAware
04:51PM 34.2630 -114.9760 257° West 441 507 37,700  Level FlightAware
04:52PM 34.2470 -115.0570 257° West 441 507 37,700 -2,160 Level FlightAware
04:52PM 34.2210 -115.2030 258° West 443 510 34,700 -2,700 Descending FlightAware
04:53PM 34.1970 -115.3010 254° West 445 512 33,900 -840 Descending FlightAware
04:54PM 34.1420 -115.4040 237° Southwest 449 517 33,400 -360 Descending FlightAware
04:55PM 34.1030 -115.4750 236° Southwest 449 517 33,400 -1,440 Level FlightAware
04:55PM 34.0920 -115.5560 261° West 451 519 32,000 -1,440 Descending FlightAware
04:56PM 34.0840 -115.6530 264° West 451 519 32,000  Level FlightAware
04:56PM 34.0740 -115.7660 264° West 450 518 32,000  Level FlightAware
04:57PM 34.0670 -115.8570 265° West 449 517 32,000  Level FlightAware
04:58PM 34.0570 -115.9670 264° West 449 517 32,000  Level FlightAware
04:58PM 34.0480 -116.0790 264° West 449 517 32,000  Level FlightAware
04:59PM 34.0390 -116.1790 264° West 449 517 32,000 -840 Level FlightAware
05:00PM 34.0310 -116.2770 264° West 444 511 30,900 -2,160 Descending FlightAware
05:00PM 34.0210 -116.3860 264° West 439 505 29,000 -2,580 Descending FlightAware
05:01PM 34.0130 -116.4810 264° West 433 498 27,300 -2,580 Descending FlightAware
05:02PM 34.0030 -116.5920 264° West 427 491 25,400 -2,580 Descending FlightAware
05:03PM 33.9940 -116.6840 263° West 422 486 23,700 -2,580 Descending FlightAware
05:03PM 33.9840 -116.7890 263° West 414 476 21,800 -2,580 Descending FlightAware
05:04PM 33.9760 -116.8760 264° West 406 467 20,100 -2,580 Descending FlightAware
05:05PM 33.9680 -116.9670 264° West 400 460 18,400 -1,980 Descending FlightAware
05:05PM 33.9580 -117.0680 263° West 392 451 17,300 -1,320 Descending FlightAware
05:06PM 33.9510 -117.1510 264° West 363 418 16,600 -1,080 Descending FlightAware
05:07PM 33.9440 -117.2290 264° West 358 412 15,900 -1,200 Descending FlightAware
05:07PM 33.9370 -117.3180 265° West 356 410 14,900 -1,620 Descending FlightAware
05:08PM 33.9480 -117.4240 277° West 346 398 13,200 -1,500 Descending FlightAware
05:09PM 33.9770 -117.5000 295° West 327 376 12,400 -1,020 Descending FlightAware
05:10PM 34.0000 -117.5640 293° West 307 353 11,800 -1,140 Descending FlightAware
05:10PM 34.0120 -117.6190 285° West 306 352 11,000 -1,080 Descending FlightAware
05:11PM 34.0050 -117.7020 264° West 276 318 10,300 -1,080 Descending FlightAware
05:12PM 34.0020 -117.7390 264° West 272 313 9,700 -1,440 Descending FlightAware
05:12PM 33.9970 -117.7830 262° West 268 308 9,000 -1,500 Descending FlightAware
05:13PM 33.9930 -117.8290 264° West 273 314 8,200 -1,320 Descending FlightAware
05:13PM 33.9890 -117.8670 263° West 257 296 7,800 -780 Descending FlightAware
05:14PM 33.9850 -117.9070 263° West 250 288 7,500 -840 Descending FlightAware
05:14PM 33.9830 -117.9280 263° West 253 291 7,200 -1,200 Descending FlightAware
05:14PM 33.9800 -117.9620 264° West 251 289 6,700 -1,200 Descending FlightAware
05:15PM 33.9750 -118.0050 262° West 244 281 6,100 -1,200 Descending FlightAware
05:15PM 33.9720 -118.0390 264° West 246 283 5,600 -1,380 Descending FlightAware
05:15PM 33.9700 -118.0590 263° West 245 282 5,200 -1,380 Descending FlightAware
05:16PM 33.9660 -118.1000 263° West 231 266 4,600 -1,200 Descending FlightAware
05:16PM 33.9630 -118.1290 263° West 217 250 4,100 -1,200 Descending FlightAware
05:17PM 33.9610 -118.1470 262° West 207 238 3,800 -1,080 Descending FlightAware
05:17PM 33.9580 -118.1810 264° West 201 231 3,300 -960 Descending FlightAware
05:17PM 33.9560 -118.1980 262° West 197 227 3,100 -900 Descending FlightAware
05:18PM 33.9540 -118.2160 262° West 194 223 2,800 -1,140 Descending FlightAware
05:18PM 33.9500 -118.2570 263° West 188 216 2,100 -780 Descending FlightAware
05:19PM 33.9490 -118.2690 264° West 185 213 1,900 -660 Descending FlightAware
05:19PM 33.9450 -118.3040 262° West 155 178 1,400 -600 Descending FlightAware
05:20PM 33.9420 -118.3360 264° West 152 175 1,200 -900 Descending FlightAware
05:20PM 33.9400 -118.3510 261° West 142 163 600 -1,200 Descending FlightAware
05:21PM 33.9380 -118.3750 264° West 133 153 200 -420 Descending FlightAware
05:21PM 33.9360 -118.3960 263° West 131 151 200  Level FlightAware